createdAt,value
2022-09-20T00:01:27.216Z,82.30
2022-09-20T00:03:57.404Z,82.71
2022-09-20T00:06:28.153Z,83.71
2022-09-20T00:08:56.669Z,82.76
2022-09-20T00:11:29.313Z,82.82
2022-09-20T00:13:59.111Z,82.45
2022-09-20T00:16:29.184Z,82.67
2022-09-20T00:18:59.188Z,81.65
2022-09-20T00:21:29.908Z,81.69
2022-09-20T00:23:58.547Z,82.33
2022-09-20T00:26:28.576Z,83.18
2022-09-20T00:28:58.313Z,82.60
2022-09-20T00:31:26.794Z,81.78
2022-09-20T00:34:13.572Z,81.76
2022-09-20T00:36:41.989Z,81.96
2022-09-20T00:39:12.904Z,81.51
2022-09-20T00:41:42.320Z,82.02
2022-09-20T00:44:47.631Z,81.30
2022-09-20T00:47:25.617Z,81.84
2022-09-20T00:49:58.748Z,81.67
2022-09-20T00:52:28.132Z,81.41
2022-09-20T00:54:57.446Z,82.36
2022-09-20T00:57:27.077Z,82.07
2022-09-20T00:59:55.930Z,82.55
2022-09-20T01:02:27.832Z,82.00
2022-09-20T01:04:57.670Z,82.50
2022-09-20T01:07:27.036Z,82.44
2022-09-20T01:09:55.201Z,82.42
2022-09-20T01:12:26.960Z,82.20
2022-09-20T01:14:57.834Z,82.95
2022-09-20T01:17:28.844Z,82.41
2022-09-20T01:20:14.599Z,82.94
2022-09-20T01:22:53.902Z,81.74
2022-09-20T01:25:42.797Z,82.53
2022-09-20T01:28:12.380Z,82.16
2022-09-20T01:30:44.878Z,81.79
2022-09-20T01:33:18.852Z,82.45
2022-09-20T01:35:51.206Z,82.61
2022-09-20T01:38:30.571Z,81.68
2022-09-20T01:41:07.762Z,82.73
2022-09-20T01:43:41.973Z,82.34
2022-09-20T01:46:23.115Z,82.04
2022-09-20T01:48:57.155Z,81.40
2022-09-20T01:51:50.478Z,81.99
2022-09-20T01:54:59.815Z,82.18
2022-09-20T01:57:46.704Z,82.01
2022-09-20T02:00:20.648Z,81.29
2022-09-20T02:03:09.285Z,81.92
2022-09-20T02:06:08.914Z,81.06
2022-09-20T02:09:03.529Z,82.11
2022-09-20T02:11:47.250Z,81.80
2022-09-20T02:14:33.372Z,82.40
2022-09-20T02:17:13.933Z,81.91
2022-09-20T02:20:00.049Z,81.69
2022-09-20T02:22:45.902Z,82.31
2022-09-20T02:25:24.672Z,81.77
2022-09-20T02:28:07.386Z,82.00
2022-09-20T02:30:50.383Z,82.00
2022-09-20T02:33:45.449Z,82.37
2022-09-20T02:36:33.393Z,82.25
2022-09-20T02:39:09.183Z,82.74
2022-09-20T02:42:00.177Z,82.97
2022-09-20T02:44:41.676Z,82.62
2022-09-20T02:47:19.355Z,82.64
2022-09-20T02:50:01.861Z,82.96
2022-09-20T02:52:39.596Z,83.23
2022-09-20T02:55:14.180Z,82.89
2022-09-20T02:57:51.777Z,83.90
2022-09-20T03:00:25.262Z,83.20
2022-09-20T03:03:06.164Z,83.24
2022-09-20T03:05:43.207Z,83.67
2022-09-20T03:08:33.043Z,84.38
2022-09-20T03:11:13.336Z,83.93
2022-09-20T03:14:07.871Z,83.29
2022-09-20T03:16:51.881Z,84.00
2022-09-20T03:19:34.464Z,83.92
2022-09-20T03:22:22.727Z,84.50
2022-09-20T03:25:08.709Z,84.27
2022-09-20T03:27:44.963Z,84.31
2022-09-20T03:30:28.956Z,83.53
2022-09-20T03:33:06.600Z,84.33
2022-09-20T03:35:47.060Z,84.66
2022-09-20T03:38:40.546Z,84.82
2022-09-20T03:41:29.088Z,84.70
2022-09-20T03:44:18.079Z,84.16
2022-09-20T03:46:48.267Z,83.88
2022-09-20T03:49:55.715Z,83.73
2022-09-20T03:52:54.591Z,83.83
2022-09-20T03:55:51.241Z,83.23
2022-09-20T03:58:32.116Z,84.12
2022-09-20T04:01:12.871Z,83.72
2022-09-20T04:03:50.642Z,83.88
2022-09-20T04:06:46.885Z,83.68
2022-09-20T04:09:48.296Z,84.71
2022-09-20T04:12:36.449Z,84.38
2022-09-20T04:15:18.837Z,83.72
2022-09-20T04:17:54.527Z,84.55
2022-09-20T04:20:29.744Z,83.90
2022-09-20T04:23:01.561Z,84.73
2022-09-20T04:25:41.814Z,84.27
2022-09-20T04:28:17.005Z,84.28
2022-09-20T04:30:46.591Z,84.31
2022-09-20T04:33:21.485Z,84.50
2022-09-20T04:36:19.363Z,83.86
2022-09-20T04:38:54.512Z,84.35
2022-09-20T04:41:52.747Z,84.65
2022-09-20T04:44:48.921Z,84.15
2022-09-20T04:47:38.313Z,84.21
2022-09-20T04:50:31.166Z,83.47
2022-09-20T04:53:30.305Z,84.33
2022-09-20T04:56:02.356Z,85.16
2022-09-20T04:58:38.555Z,85.07
2022-09-20T05:01:42.406Z,85.52
2022-09-20T05:04:46.137Z,86.55
2022-09-20T05:07:49.188Z,86.79
2022-09-20T05:10:43.577Z,86.87
2022-09-20T05:13:22.027Z,86.85
2022-09-20T05:15:59.220Z,86.08
2022-09-20T05:19:00.976Z,87.21
2022-09-20T05:21:49.954Z,87.47
2022-09-20T05:24:31.998Z,86.77
2022-09-20T05:27:13.879Z,86.84
2022-09-20T05:29:52.220Z,86.19
2022-09-20T05:32:25.391Z,86.39
2022-09-20T05:35:01.377Z,87.29
2022-09-20T05:37:40.889Z,86.63
2022-09-20T05:40:22.287Z,86.20
2022-09-20T05:42:56.720Z,87.33
2022-09-20T05:45:47.474Z,87.36
2022-09-20T05:48:24.166Z,86.24
2022-09-20T05:51:03.674Z,87.19
2022-09-20T05:54:02.659Z,86.51
2022-09-20T05:56:48.555Z,85.67
2022-09-20T05:59:38.893Z,86.84
2022-09-20T06:02:25.254Z,86.11
2022-09-20T06:05:01.940Z,85.63
2022-09-20T06:07:46.107Z,86.22
2022-09-20T06:10:31.069Z,85.67
2022-09-20T06:13:10.067Z,86.39
2022-09-20T06:15:46.662Z,86.39
2022-09-20T06:18:26.027Z,86.35
2022-09-20T06:21:05.079Z,86.55
2022-09-20T06:23:36.724Z,87.14
2022-09-20T06:26:08.807Z,87.04
2022-09-20T06:28:41.273Z,86.60
2022-09-20T06:31:11.401Z,86.57
2022-09-20T06:33:44.344Z,87.69
2022-09-20T06:36:33.110Z,87.66
2022-09-20T06:39:27.534Z,87.92
2022-09-20T06:41:56.107Z,86.53
2022-09-20T06:44:23.999Z,86.30
2022-09-20T06:46:54.382Z,86.91
2022-09-20T06:49:22.909Z,86.74
2022-09-20T06:51:52.475Z,87.15
2022-09-20T06:54:23.027Z,86.95
2022-09-20T06:56:52.193Z,87.58
2022-09-20T06:59:20.307Z,87.34
2022-09-20T07:01:48.471Z,88.04
2022-09-20T07:04:16.407Z,87.56
2022-09-20T07:06:44.355Z,86.66
2022-09-20T07:09:13.106Z,87.03
2022-09-20T07:11:43.093Z,86.56
2022-09-20T07:14:11.047Z,87.43
2022-09-20T07:16:39.941Z,86.89
2022-09-20T07:19:08.214Z,86.66
2022-09-20T07:21:36.210Z,86.80
2022-09-20T07:24:04.253Z,84.94
2022-09-20T07:26:32.697Z,84.79
2022-09-20T07:29:02.478Z,84.10
2022-09-20T07:31:30.843Z,83.24
2022-09-20T07:33:58.866Z,83.07
2022-09-20T07:36:26.848Z,82.03
2022-09-20T07:38:54.837Z,80.99
2022-09-20T07:41:23.733Z,80.87
2022-09-20T07:43:52.318Z,80.51
2022-09-20T07:46:24.161Z,80.60
2022-09-20T07:48:52.342Z,81.22
2022-09-20T07:51:20.259Z,79.35
2022-09-20T07:53:48.140Z,79.85
2022-09-20T07:56:18.386Z,79.52
2022-09-20T07:58:52.121Z,79.31
2022-09-20T08:01:22.808Z,78.99
2022-09-20T08:03:52.070Z,78.75
2022-09-20T08:06:21.416Z,77.58
2022-09-20T08:08:49.435Z,75.16
2022-09-20T08:11:20.141Z,72.84
2022-09-20T08:14:07.009Z,73.60
2022-09-20T08:16:41.941Z,73.05
2022-09-20T08:19:12.785Z,72.83
2022-09-20T08:21:41.086Z,71.37
2022-09-20T08:24:09.026Z,70.76
2022-09-20T08:26:37.411Z,70.25
2022-09-20T08:29:07.283Z,68.20
2022-09-20T08:31:38.028Z,68.15
2022-09-20T08:34:09.642Z,68.75
2022-09-20T08:36:41.163Z,69.21
2022-09-20T08:42:06.249Z,68.58
2022-09-20T08:44:37.326Z,68.43
2022-09-20T08:47:13.630Z,68.22
2022-09-20T08:49:47.724Z,67.58
2022-09-20T08:52:19.238Z,68.37
2022-09-20T08:54:47.934Z,68.19
2022-09-20T08:57:18.681Z,67.18
2022-09-20T08:59:47.327Z,66.30
2022-09-20T09:02:18.160Z,67.29
2022-09-20T09:04:49.844Z,67.94
2022-09-20T09:07:21.784Z,67.08
2022-09-20T09:09:52.930Z,66.31
2022-09-20T09:12:25.155Z,67.00
2022-09-20T09:14:56.013Z,65.92
2022-09-20T09:17:28.979Z,64.92
2022-09-20T09:20:00.029Z,64.31
2022-09-20T09:22:35.341Z,64.39
2022-09-20T09:25:32.170Z,65.08
2022-09-20T09:28:02.607Z,65.29
2022-09-20T09:30:33.720Z,65.91
2022-09-20T09:33:23.074Z,64.58
2022-09-20T09:36:01.374Z,64.37
2022-09-20T09:38:31.431Z,66.85
2022-09-20T09:41:01.649Z,66.64
2022-09-20T09:43:33.534Z,65.22
2022-09-20T09:46:21.479Z,64.20
2022-09-20T09:49:06.845Z,66.46
2022-09-20T09:51:38.692Z,64.42
2022-09-20T09:54:08.203Z,64.79
2022-09-20T09:56:47.357Z,62.85
2022-09-20T09:59:34.215Z,62.37
2022-09-20T10:02:16.848Z,62.43
2022-09-20T10:04:55.247Z,61.92
2022-09-20T10:07:32.409Z,62.66
2022-09-20T10:10:09.827Z,60.97
2022-09-20T10:12:52.777Z,59.38
2022-09-20T10:15:35.291Z,58.71
2022-09-20T10:18:21.385Z,58.44
2022-09-20T10:21:07.586Z,59.22
2022-09-20T10:24:08.832Z,58.69
2022-09-20T10:26:51.921Z,59.88
2022-09-20T10:29:33.245Z,60.13
2022-09-20T10:32:15.731Z,60.91
2022-09-20T10:35:08.776Z,60.35
2022-09-20T10:37:52.936Z,60.23
2022-09-20T10:40:51.462Z,59.23
2022-09-20T10:43:42.462Z,58.87
2022-09-20T10:46:31.918Z,58.94
2022-09-20T10:49:11.916Z,59.02
2022-09-20T10:51:49.464Z,59.64
2022-09-20T10:54:31.847Z,57.64
2022-09-20T10:57:18.895Z,58.95
2022-09-20T10:59:55.669Z,57.69
2022-09-20T11:02:39.322Z,58.62
2022-09-20T11:05:31.594Z,57.99
2022-09-20T11:08:11.990Z,58.80
2022-09-20T11:10:46.213Z,58.83
2022-09-20T11:13:26.139Z,59.22
2022-09-20T11:16:04.306Z,58.77
2022-09-20T11:18:39.078Z,58.97
2022-09-20T11:21:12.847Z,58.08
2022-09-20T11:23:51.140Z,56.11
2022-09-20T11:26:27.004Z,55.84
2022-09-20T11:29:04.012Z,55.96
2022-09-20T11:31:37.403Z,55.11
2022-09-20T11:34:13.574Z,54.96
2022-09-20T11:36:53.063Z,54.11
2022-09-20T11:39:29.072Z,55.27
2022-09-20T11:42:01.055Z,55.65
2022-09-20T11:44:31.163Z,55.47
2022-09-20T11:47:04.201Z,56.73
2022-09-20T11:49:44.031Z,57.90
2022-09-20T11:52:40.778Z,57.96
2022-09-20T11:55:40.880Z,57.61
2022-09-20T11:58:12.353Z,57.24
2022-09-20T12:00:44.718Z,56.21
2022-09-20T12:03:28.485Z,56.26
2022-09-20T12:06:01.532Z,57.96
2022-09-20T12:08:33.473Z,55.97
2022-09-20T12:11:05.241Z,55.56
2022-09-20T12:13:36.798Z,51.54
2022-09-20T12:16:08.717Z,52.67
2022-09-20T12:18:48.615Z,53.79
2022-09-20T12:21:18.848Z,55.80
2022-09-20T12:24:23.674Z,54.02
2022-09-20T12:26:56.298Z,54.35
2022-09-20T12:29:57.315Z,55.34
2022-09-20T12:32:48.985Z,55.13
2022-09-20T12:35:56.990Z,53.20
2022-09-20T12:38:31.310Z,53.74
2022-09-20T12:41:01.569Z,53.07
2022-09-20T12:43:31.232Z,50.64
2022-09-20T12:46:04.504Z,50.65
2022-09-20T12:48:39.040Z,50.75
2022-09-20T12:51:37.999Z,49.99
2022-09-20T12:54:08.596Z,50.82
2022-09-20T12:56:38.961Z,51.94
2022-09-20T12:59:21.122Z,52.18
2022-09-20T13:01:49.314Z,52.25
2022-09-20T13:05:03.151Z,52.35
2022-09-20T13:07:53.272Z,51.40
2022-09-20T13:10:30.143Z,51.02
2022-09-20T13:13:23.208Z,50.67
2022-09-20T13:15:54.475Z,49.69
2022-09-20T13:18:24.917Z,50.29
2022-09-20T13:20:53.851Z,49.27
2022-09-20T13:23:28.350Z,50.23
2022-09-20T13:25:58.701Z,49.93
2022-09-20T13:28:35.235Z,49.59
2022-09-20T13:31:26.129Z,50.02
2022-09-20T13:33:54.334Z,49.11
2022-09-20T13:36:27.577Z,48.96
2022-09-20T13:38:59.032Z,49.01
2022-09-20T13:41:32.519Z,49.89
2022-09-20T13:44:01.432Z,48.58
2022-09-20T13:46:31.628Z,47.52
2022-09-20T13:49:13.990Z,48.00
2022-09-20T13:51:41.992Z,47.34
2022-09-20T13:54:25.644Z,48.75
2022-09-20T13:56:54.179Z,50.53
2022-09-20T13:59:22.306Z,50.94
2022-09-20T14:01:52.379Z,52.66
2022-09-20T14:04:23.447Z,53.28
2022-09-20T14:06:53.268Z,53.56
2022-09-20T14:09:29.395Z,52.58
2022-09-20T14:11:58.974Z,51.77
2022-09-20T14:14:27.618Z,50.85
2022-09-20T14:16:57.277Z,51.40
2022-09-20T14:19:32.246Z,51.83
2022-09-20T14:22:03.606Z,53.79
2022-09-20T14:24:35.643Z,54.49
2022-09-20T14:27:06.791Z,54.56
2022-09-20T14:29:41.035Z,55.85
2022-09-20T14:32:18.253Z,54.79
2022-09-20T14:34:48.015Z,54.67
2022-09-20T14:37:23.464Z,55.15
2022-09-20T14:39:56.281Z,54.78
2022-09-20T14:42:35.278Z,55.33
2022-09-20T14:45:05.020Z,54.25
2022-09-20T14:47:38.747Z,53.51
2022-09-20T14:50:24.750Z,53.36
2022-09-20T14:53:26.580Z,52.58
2022-09-20T14:56:11.518Z,54.34
2022-09-20T14:59:07.592Z,54.49
2022-09-20T15:01:36.980Z,54.27
2022-09-20T15:04:10.028Z,54.69
2022-09-20T15:06:38.963Z,55.08
2022-09-20T15:09:07.104Z,55.21
2022-09-20T15:11:36.759Z,54.04
2022-09-20T15:14:04.639Z,53.76
2022-09-20T15:16:33.378Z,53.97
2022-09-20T15:19:01.359Z,53.64
2022-09-20T15:21:29.157Z,54.69
2022-09-20T15:23:57.059Z,55.15
2022-09-20T15:26:24.885Z,53.48
2022-09-20T15:28:54.077Z,54.52
2022-09-20T15:31:21.950Z,54.84
2022-09-20T15:33:49.762Z,55.47
2022-09-20T15:36:17.535Z,54.94
2022-09-20T15:38:45.635Z,53.50
2022-09-20T15:41:13.420Z,53.95
2022-09-20T15:43:43.232Z,53.87
2022-09-20T15:46:20.851Z,54.54
2022-09-20T15:48:49.076Z,52.82
2022-09-20T15:51:17.225Z,53.85
2022-09-20T15:53:46.663Z,53.61
2022-09-20T15:56:17.617Z,54.11
2022-09-20T15:58:47.835Z,53.62
2022-09-20T16:01:16.855Z,54.32
2022-09-20T16:03:47.301Z,53.24
2022-09-20T16:06:15.107Z,53.74
2022-09-20T16:08:44.318Z,53.78
2022-09-20T16:11:19.246Z,54.88
2022-09-20T16:13:54.088Z,54.43
2022-09-20T16:16:22.556Z,54.37
2022-09-20T16:19:09.524Z,54.49
2022-09-20T16:21:39.190Z,54.40
2022-09-20T16:24:07.973Z,54.63
2022-09-20T16:26:37.890Z,55.10
2022-09-20T16:29:07.319Z,55.58
2022-09-20T16:31:39.946Z,55.56
2022-09-20T16:34:13.501Z,54.86
2022-09-20T16:36:43.258Z,56.47
2022-09-20T16:39:12.842Z,56.04
2022-09-20T16:41:41.141Z,56.02
2022-09-20T16:44:09.421Z,56.46
2022-09-20T16:46:37.461Z,57.22
2022-09-20T16:49:07.293Z,56.87
2022-09-20T16:51:38.139Z,57.55
2022-09-20T16:54:10.714Z,56.85
2022-09-20T16:56:39.217Z,56.96
2022-09-20T16:59:08.080Z,57.09
2022-09-20T17:01:37.711Z,57.49
2022-09-20T17:04:06.655Z,57.63
2022-09-20T17:06:37.031Z,58.01
2022-09-20T17:09:06.538Z,58.66
2022-09-20T17:11:36.792Z,59.47
2022-09-20T17:14:05.509Z,58.21
2022-09-20T17:16:35.484Z,58.96
2022-09-20T17:19:07.306Z,59.33
2022-09-20T17:21:39.852Z,59.01
2022-09-20T17:24:08.407Z,60.17
2022-09-20T17:26:38.749Z,60.24
2022-09-20T17:29:09.417Z,60.53
2022-09-20T17:31:39.203Z,60.80
2022-09-20T17:34:10.190Z,61.04
2022-09-20T17:36:41.930Z,61.08
2022-09-20T17:39:12.192Z,61.07
2022-09-20T17:41:41.536Z,61.24
2022-09-20T17:44:10.168Z,61.98
2022-09-20T17:46:39.910Z,61.24
2022-09-20T17:49:09.636Z,62.20
2022-09-20T17:51:40.368Z,61.98
2022-09-20T17:54:09.000Z,62.10
2022-09-20T17:56:37.115Z,62.87
2022-09-20T17:59:06.874Z,64.12
2022-09-20T18:01:36.971Z,63.37
2022-09-20T18:04:07.044Z,64.31
2022-09-20T18:06:37.068Z,64.08
2022-09-20T18:09:07.794Z,63.86
2022-09-20T18:11:37.873Z,64.61
2022-09-20T18:14:07.501Z,64.86
2022-09-20T18:16:36.348Z,64.73
2022-09-20T18:19:05.667Z,65.01
2022-09-20T18:21:35.441Z,65.08
2022-09-20T18:24:06.232Z,66.14
2022-09-20T18:26:36.285Z,66.42
2022-09-20T18:29:06.513Z,66.59
2022-09-20T18:31:36.913Z,66.77
2022-09-20T18:34:06.779Z,67.24
2022-09-20T18:36:39.365Z,67.58
2022-09-20T18:39:08.138Z,68.29
2022-09-20T18:41:40.872Z,67.86
2022-09-20T18:44:08.970Z,68.45
2022-09-20T18:46:38.801Z,68.44
2022-09-20T18:49:09.635Z,68.18
2022-09-20T18:51:40.145Z,68.05
2022-09-20T18:54:10.089Z,68.46
2022-09-20T18:56:41.378Z,68.31
2022-09-20T18:59:15.460Z,68.87
2022-09-20T19:01:59.162Z,68.77
2022-09-20T19:04:55.999Z,69.29
2022-09-20T19:07:32.858Z,70.22
2022-09-20T19:10:08.765Z,70.00
2022-09-20T19:12:41.594Z,70.04
2022-09-20T19:15:40.082Z,70.89
2022-09-20T19:18:21.562Z,71.07
2022-09-20T19:20:59.455Z,71.33
2022-09-20T19:23:42.482Z,71.49
2022-09-20T19:26:20.290Z,71.98
2022-09-20T19:28:50.223Z,71.70
2022-09-20T19:31:23.505Z,71.89
2022-09-20T19:33:54.967Z,71.63
2022-09-20T19:36:23.858Z,72.16
2022-09-20T19:39:01.865Z,72.02
2022-09-20T19:41:38.478Z,71.78
2022-09-20T19:44:18.215Z,71.79
2022-09-20T19:47:01.768Z,72.33
2022-09-20T19:49:40.014Z,72.67
2022-09-20T19:52:11.246Z,72.99
2022-09-20T19:54:42.202Z,73.63
2022-09-20T19:57:19.938Z,73.24
2022-09-20T19:59:50.566Z,74.02
2022-09-20T20:02:19.084Z,74.19
2022-09-20T20:04:47.236Z,73.91
2022-09-20T20:07:24.784Z,74.30
2022-09-20T20:09:59.714Z,74.13
2022-09-20T20:12:35.267Z,75.16
2022-09-20T20:15:16.116Z,74.89
2022-09-20T20:17:52.568Z,74.35
2022-09-20T20:20:29.682Z,74.92
2022-09-20T20:23:37.659Z,75.07
2022-09-20T20:26:09.146Z,74.92
2022-09-20T20:28:38.117Z,74.92
2022-09-20T20:31:12.130Z,75.34
2022-09-20T20:33:40.712Z,75.24
2022-09-20T20:36:11.155Z,75.29
2022-09-20T20:38:40.256Z,75.62
2022-09-20T20:41:09.857Z,75.78
2022-09-20T20:43:39.213Z,75.89
2022-09-20T20:46:10.213Z,76.16
2022-09-20T20:48:38.590Z,76.11
2022-09-20T20:51:09.511Z,75.98
2022-09-20T20:53:39.329Z,76.48
2022-09-20T20:56:09.654Z,76.36
2022-09-20T20:58:40.755Z,77.09
2022-09-20T21:01:12.028Z,76.58
2022-09-20T21:03:41.640Z,77.48
2022-09-20T21:06:10.889Z,77.66
2022-09-20T21:08:40.386Z,77.40
2022-09-20T21:11:11.503Z,77.29
2022-09-20T21:13:39.961Z,77.52
2022-09-20T21:16:11.754Z,77.47
2022-09-20T21:18:41.014Z,77.87
2022-09-20T21:21:15.977Z,77.78
2022-09-20T21:23:45.846Z,78.17
2022-09-20T21:26:15.613Z,77.61
2022-09-20T21:28:44.975Z,78.52
2022-09-20T21:31:14.470Z,78.01
2022-09-20T21:33:43.915Z,78.20
2022-09-20T21:36:13.788Z,78.79
2022-09-20T21:38:42.345Z,78.60
2022-09-20T21:41:12.333Z,78.91
2022-09-20T21:43:42.566Z,78.54
2022-09-20T21:46:17.518Z,78.83
2022-09-20T21:48:45.922Z,77.89
2022-09-20T21:51:15.417Z,78.51
2022-09-20T21:53:43.487Z,78.51
2022-09-20T21:56:13.458Z,78.61
2022-09-20T21:58:41.675Z,78.61
2022-09-20T22:01:11.964Z,79.21
2022-09-20T22:03:43.105Z,79.39
2022-09-20T22:06:13.395Z,79.25
2022-09-20T22:08:43.417Z,78.78
2022-09-20T22:11:14.953Z,78.33
2022-09-20T22:13:43.894Z,78.98
2022-09-20T22:16:14.280Z,78.36
2022-09-20T22:18:45.043Z,78.50
2022-09-20T22:21:15.058Z,78.84
2022-09-20T22:23:43.791Z,78.53
2022-09-20T22:26:14.305Z,79.32
2022-09-20T22:28:43.030Z,79.42
2022-09-20T22:31:13.093Z,78.66
2022-09-20T22:33:44.445Z,79.05
2022-09-20T22:36:15.252Z,79.55
2022-09-20T22:38:43.817Z,78.32
2022-09-20T22:41:13.408Z,78.52
2022-09-20T22:43:41.823Z,78.32
2022-09-20T22:46:11.433Z,79.30
2022-09-20T22:48:40.115Z,79.05
2022-09-20T22:51:11.765Z,78.89
2022-09-20T22:53:40.110Z,79.63
2022-09-20T22:56:09.675Z,78.90
2022-09-20T22:58:39.187Z,78.89
2022-09-20T23:01:09.884Z,78.98
2022-09-20T23:03:39.066Z,79.60
2022-09-20T23:06:14.534Z,79.39
2022-09-20T23:08:42.750Z,79.23
2022-09-20T23:11:11.117Z,79.13
2022-09-20T23:13:39.361Z,79.51
2022-09-20T23:16:15.583Z,79.03
2022-09-20T23:18:43.824Z,78.86
2022-09-20T23:21:14.032Z,78.76
2022-09-20T23:23:43.230Z,79.28
2022-09-20T23:26:13.755Z,78.65
2022-09-20T23:28:43.602Z,78.58
2022-09-20T23:31:14.420Z,79.38
2022-09-20T23:33:48.202Z,78.99
2022-09-20T23:36:19.026Z,78.65
2022-09-20T23:38:47.997Z,78.94
2022-09-20T23:41:18.417Z,78.34
2022-09-20T23:43:47.067Z,77.95
2022-09-20T23:46:16.576Z,78.59
2022-09-20T23:48:45.558Z,78.40
2022-09-20T23:51:14.934Z,78.52
2022-09-20T23:53:44.480Z,78.88
2022-09-20T23:56:13.918Z,79.00
2022-09-20T23:58:43.915Z,78.45
